weather.gov     
National Weather Service

Terminal Aerodrome Forecast
NWS Homepage
This page is being discontinued on March 12, 2014.
The same data is available at this site. Please update your bookmarks.
Thank you, and we apologize for the inconvenience.
Please send an email to SR-SRH.Webmaster@noaa.gov with any concerns.


Current Version
Previous Version:    01  02  03  04  05  06  07  08  09  10  11  12  13  14  15  16  17  18  19  20  21  22  23  
[Printable]
962
FTUS42 KGSP 311100
TAFHKY
TAF
KHKY 311124Z 3112/0112 00000KT P6SM FEW045 SCT070 BKN090
     FM311500 08004KT P6SM BKN050
     FM010000 04003KT P6SM OVC060 PROB30 0100/0104 4SM TSRA OVC040CB
     FM010400 00000KT P6SM OVC060
     FM010900 00000KT 3SM -SHRA BR OVC030=


U.S. Dept. of Commerce
NOAA National Weather Service
1325 East West Highway
Silver Spring, MD 20910
E-mail: w-nws.webmaster@noaa.gov
Page last modified: May 16, 2007
NATIONAL WEATHER SERVICE: for Safety, for Work, for Fun - FOR LIFE